sensor_id;sensor_type;location;lat;lon;timestamp;P1;durP1;ratioP1;P2;durP2;ratioP2
8297;SDS011;4187;42.778;23.242;2024-02-15T00:01:06;14.10;;;12.27;;
8297;SDS011;4187;42.778;23.242;2024-02-15T00:03:33;11.33;;;9.60;;
8297;SDS011;4187;42.778;23.242;2024-02-15T00:06:02;10.80;;;8.77;;
8297;SDS011;4187;42.778;23.242;2024-02-15T00:08:29;11.97;;;9.07;;
8297;SDS011;4187;42.778;23.242;2024-02-15T00:10:58;9.67;;;8.63;;
8297;SDS011;4187;42.778;23.242;2024-02-15T00:13:24;9.93;;;8.87;;
8297;SDS011;4187;42.778;23.242;2024-02-15T00:15:51;11.07;;;8.70;;
8297;SDS011;4187;42.778;23.242;2024-02-15T00:18:20;12.47;;;9.67;;
8297;SDS011;4187;42.778;23.242;2024-02-15T00:20:47;10.50;;;8.83;;
8297;SDS011;4187;42.778;23.242;2024-02-15T00:23:16;11.50;;;9.27;;
8297;SDS011;4187;42.778;23.242;2024-02-15T00:25:49;11.63;;;9.30;;
8297;SDS011;4187;42.778;23.242;2024-02-15T00:28:15;9.13;;;8.23;;
8297;SDS011;4187;42.778;23.242;2024-02-15T00:30:43;9.77;;;8.60;;
8297;SDS011;4187;42.778;23.242;2024-02-15T00:33:09;10.00;;;8.33;;
8297;SDS011;4187;42.778;23.242;2024-02-15T00:35:36;10.67;;;8.83;;
8297;SDS011;4187;42.778;23.242;2024-02-15T00:38:03;8.87;;;7.97;;
8297;SDS011;4187;42.778;23.242;2024-02-15T00:40:33;9.93;;;8.47;;
8297;SDS011;4187;42.778;23.242;2024-02-15T00:43:00;9.60;;;8.60;;
8297;SDS011;4187;42.778;23.242;2024-02-15T00:45:27;16.70;;;9.20;;
8297;SDS011;4187;42.778;23.242;2024-02-15T00:47:54;11.23;;;8.40;;
8297;SDS011;4187;42.778;23.242;2024-02-15T00:50:27;9.40;;;8.03;;
8297;SDS011;4187;42.778;23.242;2024-02-15T00:52:54;12.77;;;8.87;;
8297;SDS011;4187;42.778;23.242;2024-02-15T00:55:21;10.17;;;8.97;;
8297;SDS011;4187;42.778;23.242;2024-02-15T00:57:49;10.43;;;8.63;;
8297;SDS011;4187;42.778;23.242;2024-02-15T01:00:16;12.53;;;9.40;;
8297;SDS011;4187;42.778;23.242;2024-02-15T01:02:42;11.37;;;9.30;;
8297;SDS011;4187;42.778;23.242;2024-02-15T01:05:09;11.27;;;9.00;;
8297;SDS011;4187;42.778;23.242;2024-02-15T01:07:36;12.17;;;9.87;;
8297;SDS011;4187;42.778;23.242;2024-02-15T01:10:04;12.33;;;9.33;;
8297;SDS011;4187;42.778;23.242;2024-02-15T01:12:32;13.83;;;9.03;;
8297;SDS011;4187;42.778;23.242;2024-02-15T01:15:00;10.80;;;8.47;;
8297;SDS011;4187;42.778;23.242;2024-02-15T01:17:28;10.73;;;8.47;;
8297;SDS011;4187;42.778;23.242;2024-02-15T01:19:54;10.33;;;8.73;;
8297;SDS011;4187;42.778;23.242;2024-02-15T01:22:21;8.80;;;7.90;;
8297;SDS011;4187;42.778;23.242;2024-02-15T01:24:48;10.07;;;8.40;;
8297;SDS011;4187;42.778;23.242;2024-02-15T01:27:15;12.23;;;8.83;;
8297;SDS011;4187;42.778;23.242;2024-02-15T01:29:43;10.87;;;8.60;;
8297;SDS011;4187;42.778;23.242;2024-02-15T01:32:11;12.57;;;10.60;;
8297;SDS011;4187;42.778;23.242;2024-02-15T01:34:38;12.97;;;10.23;;
8297;SDS011;4187;42.778;23.242;2024-02-15T01:37:04;10.30;;;8.80;;
8297;SDS011;4187;42.778;23.242;2024-02-15T01:39:31;11.07;;;8.87;;
8297;SDS011;4187;42.778;23.242;2024-02-15T01:41:58;13.33;;;8.90;;
8297;SDS011;4187;42.778;23.242;2024-02-15T01:44:25;10.07;;;8.87;;
8297;SDS011;4187;42.778;23.242;2024-02-15T01:46:52;9.53;;;8.50;;
8297;SDS011;4187;42.778;23.242;2024-02-15T01:49:21;11.23;;;9.30;;
8297;SDS011;4187;42.778;23.242;2024-02-15T01:51:48;10.97;;;8.93;;
8297;SDS011;4187;42.778;23.242;2024-02-15T01:54:18;12.37;;;9.10;;
8297;SDS011;4187;42.778;23.242;2024-02-15T01:56:45;15.60;;;12.63;;
8297;SDS011;4187;42.778;23.242;2024-02-15T01:59:13;17.80;;;12.60;;
8297;SDS011;4187;42.778;23.242;2024-02-15T02:01:41;10.83;;;9.73;;
8297;SDS011;4187;42.778;23.242;2024-02-15T02:04:09;10.50;;;8.90;;
8297;SDS011;4187;42.778;23.242;2024-02-15T02:06:38;12.37;;;9.67;;
8297;SDS011;4187;42.778;23.242;2024-02-15T02:09:05;12.13;;;10.40;;
8297;SDS011;4187;42.778;23.242;2024-02-15T02:11:34;11.10;;;9.10;;
8297;SDS011;4187;42.778;23.242;2024-02-15T02:14:01;10.00;;;8.77;;
8297;SDS011;4187;42.778;23.242;2024-02-15T02:16:29;9.00;;;7.70;;
8297;SDS011;4187;42.778;23.242;2024-02-15T02:18:57;12.40;;;9.50;;
8297;SDS011;4187;42.778;23.242;2024-02-15T02:21:25;11.73;;;9.13;;
8297;SDS011;4187;42.778;23.242;2024-02-15T02:23:56;11.17;;;9.60;;
8297;SDS011;4187;42.778;23.242;2024-02-15T02:26:25;11.83;;;9.23;;
8297;SDS011;4187;42.778;23.242;2024-02-15T02:28:52;11.60;;;9.47;;
8297;SDS011;4187;42.778;23.242;2024-02-15T02:31:19;10.13;;;8.27;;
8297;SDS011;4187;42.778;23.242;2024-02-15T02:33:47;12.00;;;9.53;;
8297;SDS011;4187;42.778;23.242;2024-02-15T02:36:17;11.57;;;9.07;;
8297;SDS011;4187;42.778;23.242;2024-02-15T02:38:43;11.17;;;9.10;;
8297;SDS011;4187;42.778;23.242;2024-02-15T02:41:11;10.97;;;8.97;;
8297;SDS011;4187;42.778;23.242;2024-02-15T02:43:40;12.17;;;9.03;;
8297;SDS011;4187;42.778;23.242;2024-02-15T02:46:09;12.47;;;9.37;;
8297;SDS011;4187;42.778;23.242;2024-02-15T02:48:37;10.17;;;8.50;;
8297;SDS011;4187;42.778;23.242;2024-02-15T02:51:04;11.20;;;9.03;;
8297;SDS011;4187;42.778;23.242;2024-02-15T02:53:32;10.50;;;8.30;;
8297;SDS011;4187;42.778;23.242;2024-02-15T02:55:59;13.53;;;10.53;;
8297;SDS011;4187;42.778;23.242;2024-02-15T02:58:26;13.13;;;9.73;;
8297;SDS011;4187;42.778;23.242;2024-02-15T03:00:55;12.13;;;9.57;;
8297;SDS011;4187;42.778;23.242;2024-02-15T03:03:23;12.30;;;11.00;;
8297;SDS011;4187;42.778;23.242;2024-02-15T03:05:49;12.60;;;10.77;;
8297;SDS011;4187;42.778;23.242;2024-02-15T03:08:16;13.97;;;9.80;;
8297;SDS011;4187;42.778;23.242;2024-02-15T03:10:43;11.97;;;9.57;;
8297;SDS011;4187;42.778;23.242;2024-02-15T03:13:10;13.93;;;10.33;;
8297;SDS011;4187;42.778;23.242;2024-02-15T03:15:37;12.83;;;9.90;;
8297;SDS011;4187;42.778;23.242;2024-02-15T03:18:05;12.23;;;9.67;;
8297;SDS011;4187;42.778;23.242;2024-02-15T03:20:33;17.03;;;11.73;;
8297;SDS011;4187;42.778;23.242;2024-02-15T03:23:03;14.23;;;9.57;;
8297;SDS011;4187;42.778;23.242;2024-02-15T03:25:30;12.30;;;9.93;;
8297;SDS011;4187;42.778;23.242;2024-02-15T03:27:59;11.60;;;9.37;;
8297;SDS011;4187;42.778;23.242;2024-02-15T03:30:29;11.67;;;10.00;;
8297;SDS011;4187;42.778;23.242;2024-02-15T03:32:56;12.33;;;9.67;;
8297;SDS011;4187;42.778;23.242;2024-02-15T03:35:25;13.47;;;11.07;;
8297;SDS011;4187;42.778;23.242;2024-02-15T03:37:53;11.87;;;9.37;;
8297;SDS011;4187;42.778;23.242;2024-02-15T03:40:21;12.57;;;9.80;;
8297;SDS011;4187;42.778;23.242;2024-02-15T03:42:51;13.40;;;9.83;;
8297;SDS011;4187;42.778;23.242;2024-02-15T03:45:18;10.90;;;9.67;;
8297;SDS011;4187;42.778;23.242;2024-02-15T03:47:45;14.20;;;9.67;;
8297;SDS011;4187;42.778;23.242;2024-02-15T03:50:12;11.57;;;9.83;;
8297;SDS011;4187;42.778;23.242;2024-02-15T03:52:42;14.20;;;9.83;;
8297;SDS011;4187;42.778;23.242;2024-02-15T03:55:11;12.27;;;10.00;;
8297;SDS011;4187;42.778;23.242;2024-02-15T03:57:38;12.57;;;8.90;;
8297;SDS011;4187;42.778;23.242;2024-02-15T04:00:06;12.73;;;10.37;;
8297;SDS011;4187;42.778;23.242;2024-02-15T04:02:36;10.47;;;9.27;;
8297;SDS011;4187;42.778;23.242;2024-02-15T04:05:05;12.97;;;11.23;;
8297;SDS011;4187;42.778;23.242;2024-02-15T04:07:34;16.17;;;10.50;;
8297;SDS011;4187;42.778;23.242;2024-02-15T04:10:03;11.43;;;10.23;;
8297;SDS011;4187;42.778;23.242;2024-02-15T04:12:31;15.07;;;10.33;;
8297;SDS011;4187;42.778;23.242;2024-02-15T04:14:58;13.67;;;10.40;;
8297;SDS011;4187;42.778;23.242;2024-02-15T04:17:30;13.50;;;10.00;;
8297;SDS011;4187;42.778;23.242;2024-02-15T04:19:58;12.70;;;10.43;;
8297;SDS011;4187;42.778;23.242;2024-02-15T04:22:25;15.13;;;10.60;;
8297;SDS011;4187;42.778;23.242;2024-02-15T04:24:58;13.93;;;10.27;;
8297;SDS011;4187;42.778;23.242;2024-02-15T04:27:27;13.30;;;10.47;;
8297;SDS011;4187;42.778;23.242;2024-02-15T04:29:53;13.97;;;10.33;;
8297;SDS011;4187;42.778;23.242;2024-02-15T04:32:20;12.07;;;10.77;;
8297;SDS011;4187;42.778;23.242;2024-02-15T04:34:47;14.63;;;11.57;;
8297;SDS011;4187;42.778;23.242;2024-02-15T04:37:14;17.83;;;10.83;;
8297;SDS011;4187;42.778;23.242;2024-02-15T04:39:42;15.87;;;12.37;;
8297;SDS011;4187;42.778;23.242;2024-02-15T04:42:08;14.33;;;10.53;;
8297;SDS011;4187;42.778;23.242;2024-02-15T04:44:39;12.83;;;10.80;;
8297;SDS011;4187;42.778;23.242;2024-02-15T04:47:06;16.17;;;10.10;;
8297;SDS011;4187;42.778;23.242;2024-02-15T04:49:33;13.80;;;9.90;;
8297;SDS011;4187;42.778;23.242;2024-02-15T04:52:01;13.60;;;10.43;;
8297;SDS011;4187;42.778;23.242;2024-02-15T04:54:29;10.87;;;9.67;;
8297;SDS011;4187;42.778;23.242;2024-02-15T04:56:56;13.53;;;10.67;;
8297;SDS011;4187;42.778;23.242;2024-02-15T04:59:23;13.73;;;10.07;;
8297;SDS011;4187;42.778;23.242;2024-02-15T05:01:52;11.57;;;10.20;;
8297;SDS011;4187;42.778;23.242;2024-02-15T05:04:20;15.80;;;10.63;;
8297;SDS011;4187;42.778;23.242;2024-02-15T05:06:46;11.13;;;9.53;;
8297;SDS011;4187;42.778;23.242;2024-02-15T05:09:13;12.37;;;9.93;;
8297;SDS011;4187;42.778;23.242;2024-02-15T05:11:43;13.10;;;9.77;;
8297;SDS011;4187;42.778;23.242;2024-02-15T05:14:12;12.43;;;9.57;;
8297;SDS011;4187;42.778;23.242;2024-02-15T05:16:44;14.07;;;9.23;;
8297;SDS011;4187;42.778;23.242;2024-02-15T05:19:14;12.27;;;9.70;;
8297;SDS011;4187;42.778;23.242;2024-02-15T05:21:42;13.60;;;10.53;;
8297;SDS011;4187;42.778;23.242;2024-02-15T05:24:10;12.00;;;9.47;;
8297;SDS011;4187;42.778;23.242;2024-02-15T05:26:38;11.50;;;9.87;;
8297;SDS011;4187;42.778;23.242;2024-02-15T05:29:07;14.47;;;10.10;;
8297;SDS011;4187;42.778;23.242;2024-02-15T05:31:35;13.40;;;9.67;;
8297;SDS011;4187;42.778;23.242;2024-02-15T05:34:04;11.27;;;9.60;;
8297;SDS011;4187;42.778;23.242;2024-02-15T05:36:34;15.67;;;11.23;;
8297;SDS011;4187;42.778;23.242;2024-02-15T05:39:00;14.57;;;10.67;;
8297;SDS011;4187;42.778;23.242;2024-02-15T05:41:28;12.00;;;9.83;;
8297;SDS011;4187;42.778;23.242;2024-02-15T05:43:55;13.53;;;10.53;;
8297;SDS011;4187;42.778;23.242;2024-02-15T05:46:23;11.53;;;9.57;;
8297;SDS011;4187;42.778;23.242;2024-02-15T05:48:50;15.33;;;10.17;;
8297;SDS011;4187;42.778;23.242;2024-02-15T05:51:17;12.63;;;10.17;;
8297;SDS011;4187;42.778;23.242;2024-02-15T05:53:46;15.57;;;10.20;;
8297;SDS011;4187;42.778;23.242;2024-02-15T05:56:14;12.47;;;9.23;;
8297;SDS011;4187;42.778;23.242;2024-02-15T05:58:41;14.67;;;10.10;;
8297;SDS011;4187;42.778;23.242;2024-02-15T06:01:08;16.63;;;10.50;;
8297;SDS011;4187;42.778;23.242;2024-02-15T06:03:37;13.43;;;10.00;;
8297;SDS011;4187;42.778;23.242;2024-02-15T06:06:05;13.07;;;10.53;;
8297;SDS011;4187;42.778;23.242;2024-02-15T06:08:32;14.20;;;10.17;;
8297;SDS011;4187;42.778;23.242;2024-02-15T06:11:01;13.50;;;9.87;;
8297;SDS011;4187;42.778;23.242;2024-02-15T06:13:28;13.50;;;9.47;;
8297;SDS011;4187;42.778;23.242;2024-02-15T06:15:56;12.70;;;10.40;;
8297;SDS011;4187;42.778;23.242;2024-02-15T06:18:24;12.17;;;10.20;;
8297;SDS011;4187;42.778;23.242;2024-02-15T06:20:53;13.13;;;9.73;;
8297;SDS011;4187;42.778;23.242;2024-02-15T06:23:22;14.37;;;9.73;;
8297;SDS011;4187;42.778;23.242;2024-02-15T06:25:50;20.37;;;14.10;;
8297;SDS011;4187;42.778;23.242;2024-02-15T06:28:20;13.63;;;9.73;;
8297;SDS011;4187;42.778;23.242;2024-02-15T06:31:01;13.60;;;9.33;;
8297;SDS011;4187;42.778;23.242;2024-02-15T06:33:47;12.87;;;9.50;;
8297;SDS011;4187;42.778;23.242;2024-02-15T06:36:31;12.20;;;10.17;;
8297;SDS011;4187;42.778;23.242;2024-02-15T06:39:15;14.10;;;10.03;;
8297;SDS011;4187;42.778;23.242;2024-02-15T06:41:59;20.03;;;11.53;;
8297;SDS011;4187;42.778;23.242;2024-02-15T06:44:27;17.47;;;11.63;;
8297;SDS011;4187;42.778;23.242;2024-02-15T06:46:54;21.70;;;13.97;;
8297;SDS011;4187;42.778;23.242;2024-02-15T06:49:22;16.03;;;11.93;;
8297;SDS011;4187;42.778;23.242;2024-02-15T06:51:50;19.67;;;12.90;;
8297;SDS011;4187;42.778;23.242;2024-02-15T06:54:17;15.40;;;11.20;;
8297;SDS011;4187;42.778;23.242;2024-02-15T06:56:43;16.57;;;11.00;;
8297;SDS011;4187;42.778;23.242;2024-02-15T06:59:11;13.83;;;10.70;;
8297;SDS011;4187;42.778;23.242;2024-02-15T07:01:43;15.43;;;10.93;;
8297;SDS011;4187;42.778;23.242;2024-02-15T07:04:10;13.17;;;10.63;;
8297;SDS011;4187;42.778;23.242;2024-02-15T07:06:37;12.90;;;10.17;;
8297;SDS011;4187;42.778;23.242;2024-02-15T07:09:05;17.27;;;10.97;;
8297;SDS011;4187;42.778;23.242;2024-02-15T07:11:32;17.97;;;11.83;;
8297;SDS011;4187;42.778;23.242;2024-02-15T07:13:59;13.93;;;10.33;;
8297;SDS011;4187;42.778;23.242;2024-02-15T07:16:26;16.03;;;10.50;;
8297;SDS011;4187;42.778;23.242;2024-02-15T07:18:55;16.00;;;10.33;;
8297;SDS011;4187;42.778;23.242;2024-02-15T07:21:22;11.87;;;9.23;;
8297;SDS011;4187;42.778;23.242;2024-02-15T07:23:52;14.20;;;10.23;;
8297;SDS011;4187;42.778;23.242;2024-02-15T07:26:19;12.43;;;9.67;;
8297;SDS011;4187;42.778;23.242;2024-02-15T07:28:49;17.10;;;10.80;;
8297;SDS011;4187;42.778;23.242;2024-02-15T07:31:18;15.23;;;10.90;;
8297;SDS011;4187;42.778;23.242;2024-02-15T07:33:46;15.23;;;11.17;;
8297;SDS011;4187;42.778;23.242;2024-02-15T07:36:15;15.93;;;10.80;;
8297;SDS011;4187;42.778;23.242;2024-02-15T07:38:44;17.60;;;12.77;;
8297;SDS011;4187;42.778;23.242;2024-02-15T07:41:13;18.43;;;10.20;;
8297;SDS011;4187;42.778;23.242;2024-02-15T07:43:40;12.60;;;10.57;;
8297;SDS011;4187;42.778;23.242;2024-02-15T07:46:08;21.97;;;12.63;;
8297;SDS011;4187;42.778;23.242;2024-02-15T07:48:38;12.63;;;10.40;;
8297;SDS011;4187;42.778;23.242;2024-02-15T07:51:10;14.07;;;9.50;;
8297;SDS011;4187;42.778;23.242;2024-02-15T07:53:38;13.23;;;10.20;;
8297;SDS011;4187;42.778;23.242;2024-02-15T07:56:06;13.90;;;9.80;;
8297;SDS011;4187;42.778;23.242;2024-02-15T07:58:33;17.40;;;10.47;;
8297;SDS011;4187;42.778;23.242;2024-02-15T08:01:00;10.67;;;9.27;;
8297;SDS011;4187;42.778;23.242;2024-02-15T08:03:27;12.37;;;9.30;;
8297;SDS011;4187;42.778;23.242;2024-02-15T08:05:54;11.27;;;9.00;;
8297;SDS011;4187;42.778;23.242;2024-02-15T08:08:21;10.43;;;8.90;;
8297;SDS011;4187;42.778;23.242;2024-02-15T08:10:50;13.70;;;8.40;;
8297;SDS011;4187;42.778;23.242;2024-02-15T08:13:20;11.43;;;8.73;;
8297;SDS011;4187;42.778;23.242;2024-02-15T08:15:49;10.43;;;8.90;;
8297;SDS011;4187;42.778;23.242;2024-02-15T08:18:17;13.80;;;9.23;;
8297;SDS011;4187;42.778;23.242;2024-02-15T08:20:45;10.27;;;9.13;;
8297;SDS011;4187;42.778;23.242;2024-02-15T08:23:12;13.60;;;9.47;;
8297;SDS011;4187;42.778;23.242;2024-02-15T08:25:39;10.77;;;9.20;;
8297;SDS011;4187;42.778;23.242;2024-02-15T08:28:07;10.75;;;8.65;;
8297;SDS011;4187;42.778;23.242;2024-02-15T08:30:37;11.33;;;9.00;;
8297;SDS011;4187;42.778;23.242;2024-02-15T08:33:03;11.32;;;7.85;;
8297;SDS011;4187;42.778;23.242;2024-02-15T08:35:30;11.88;;;7.93;;
8297;SDS011;4187;42.778;23.242;2024-02-15T08:37:58;10.15;;;8.88;;
8297;SDS011;4187;42.778;23.242;2024-02-15T08:40:25;11.02;;;8.02;;
8297;SDS011;4187;42.778;23.242;2024-02-15T08:42:52;10.05;;;7.57;;
8297;SDS011;4187;42.778;23.242;2024-02-15T08:45:22;10.68;;;8.15;;
8297;SDS011;4187;42.778;23.242;2024-02-15T08:47:49;9.73;;;7.72;;
8297;SDS011;4187;42.778;23.242;2024-02-15T08:50:18;12.57;;;8.55;;
8297;SDS011;4187;42.778;23.242;2024-02-15T08:52:47;8.65;;;7.75;;
8297;SDS011;4187;42.778;23.242;2024-02-15T08:55:14;11.60;;;8.10;;
8297;SDS011;4187;42.778;23.242;2024-02-15T08:57:42;8.50;;;7.47;;
8297;SDS011;4187;42.778;23.242;2024-02-15T09:00:10;11.40;;;8.00;;
8297;SDS011;4187;42.778;23.242;2024-02-15T09:02:42;8.90;;;6.72;;
8297;SDS011;4187;42.778;23.242;2024-02-15T09:05:09;9.35;;;7.55;;
8297;SDS011;4187;42.778;23.242;2024-02-15T09:07:39;12.70;;;7.45;;
8297;SDS011;4187;42.778;23.242;2024-02-15T09:10:07;8.35;;;7.03;;
8297;SDS011;4187;42.778;23.242;2024-02-15T09:12:35;13.32;;;7.78;;
8297;SDS011;4187;42.778;23.242;2024-02-15T09:15:05;9.05;;;7.97;;
8297;SDS011;4187;42.778;23.242;2024-02-15T09:17:33;8.85;;;7.28;;
8297;SDS011;4187;42.778;23.242;2024-02-15T09:20:06;10.15;;;8.43;;
8297;SDS011;4187;42.778;23.242;2024-02-15T09:22:39;10.65;;;7.50;;
8297;SDS011;4187;42.778;23.242;2024-02-15T09:25:07;8.07;;;7.28;;
8297;SDS011;4187;42.778;23.242;2024-02-15T09:27:34;12.35;;;7.63;;
8297;SDS011;4187;42.778;23.242;2024-02-15T09:30:01;9.75;;;7.70;;
8297;SDS011;4187;42.778;23.242;2024-02-15T09:32:32;8.73;;;7.38;;
8297;SDS011;4187;42.778;23.242;2024-02-15T09:35:00;9.80;;;7.30;;
8297;SDS011;4187;42.778;23.242;2024-02-15T09:37:28;13.02;;;7.97;;
8297;SDS011;4187;42.778;23.242;2024-02-15T09:39:55;8.00;;;7.07;;
8297;SDS011;4187;42.778;23.242;2024-02-15T09:42:24;8.10;;;6.88;;
8297;SDS011;4187;42.778;23.242;2024-02-15T09:44:50;8.20;;;6.88;;
8297;SDS011;4187;42.778;23.242;2024-02-15T09:47:17;7.72;;;6.47;;
8297;SDS011;4187;42.778;23.242;2024-02-15T09:49:45;9.07;;;7.50;;
8297;SDS011;4187;42.778;23.242;2024-02-15T09:52:12;9.25;;;7.53;;
8297;SDS011;4187;42.778;23.242;2024-02-15T09:54:42;11.15;;;8.00;;
8297;SDS011;4187;42.778;23.242;2024-02-15T09:57:10;8.48;;;7.47;;
8297;SDS011;4187;42.778;23.242;2024-02-15T09:59:38;8.10;;;6.88;;
8297;SDS011;4187;42.778;23.242;2024-02-15T10:02:05;9.02;;;7.18;;
8297;SDS011;4187;42.778;23.242;2024-02-15T10:04:37;10.48;;;7.63;;
8297;SDS011;4187;42.778;23.242;2024-02-15T10:07:05;8.45;;;7.18;;
8297;SDS011;4187;42.778;23.242;2024-02-15T10:09:34;10.48;;;6.88;;
8297;SDS011;4187;42.778;23.242;2024-02-15T10:12:03;8.45;;;6.93;;
8297;SDS011;4187;42.778;23.242;2024-02-15T10:14:32;7.22;;;6.45;;
8297;SDS011;4187;42.778;23.242;2024-02-15T10:17:05;7.95;;;6.75;;
8297;SDS011;4187;42.778;23.242;2024-02-15T10:19:34;8.32;;;6.72;;
8297;SDS011;4187;42.778;23.242;2024-02-15T10:22:05;7.93;;;7.10;;
8297;SDS011;4187;42.778;23.242;2024-02-15T10:24:32;9.70;;;7.32;;
8297;SDS011;4187;42.778;23.242;2024-02-15T10:27:00;14.73;;;12.75;;
8297;SDS011;4187;42.778;23.242;2024-02-15T10:29:30;9.98;;;8.88;;
8297;SDS011;4187;42.778;23.242;2024-02-15T10:31:57;9.40;;;7.68;;
8297;SDS011;4187;42.778;23.242;2024-02-15T10:34:25;12.68;;;10.10;;
8297;SDS011;4187;42.778;23.242;2024-02-15T10:36:53;8.77;;;7.40;;
8297;SDS011;4187;42.778;23.242;2024-02-15T10:39:21;9.40;;;8.45;;
8297;SDS011;4187;42.778;23.242;2024-02-15T10:41:50;8.93;;;8.02;;
8297;SDS011;4187;42.778;23.242;2024-02-15T10:44:18;7.53;;;6.70;;
8297;SDS011;4187;42.778;23.242;2024-02-15T10:46:47;8.27;;;6.68;;
8297;SDS011;4187;42.778;23.242;2024-02-15T10:49:20;13.27;;;8.40;;
8297;SDS011;4187;42.778;23.242;2024-02-15T10:51:49;8.05;;;6.60;;
8297;SDS011;4187;42.778;23.242;2024-02-15T10:54:22;7.57;;;6.80;;
8297;SDS011;4187;42.778;23.242;2024-02-15T10:57:06;9.77;;;7.10;;
8297;SDS011;4187;42.778;23.242;2024-02-15T10:59:36;12.48;;;7.47;;
8297;SDS011;4187;42.778;23.242;2024-02-15T11:02:11;7.43;;;6.47;;
8297;SDS011;4187;42.778;23.242;2024-02-15T11:04:51;8.50;;;6.72;;
8297;SDS011;4187;42.778;23.242;2024-02-15T11:07:23;10.10;;;8.43;;
8297;SDS011;4187;42.778;23.242;2024-02-15T11:09:51;10.70;;;7.15;;
8297;SDS011;4187;42.778;23.242;2024-02-15T11:12:21;8.70;;;7.75;;
8297;SDS011;4187;42.778;23.242;2024-02-15T11:14:50;9.93;;;7.68;;
8297;SDS011;4187;42.778;23.242;2024-02-15T11:23:24;10.90;;;7.30;;
8297;SDS011;4187;42.778;23.242;2024-02-15T11:25:55;10.13;;;6.75;;
8297;SDS011;4187;42.778;23.242;2024-02-15T11:28:37;10.27;;;7.57;;
8297;SDS011;4187;42.778;23.242;2024-02-15T11:31:14;11.10;;;8.55;;
8297;SDS011;4187;42.778;23.242;2024-02-15T11:40:21;10.07;;;7.47;;
8297;SDS011;4187;42.778;23.242;2024-02-15T11:42:51;9.25;;;7.53;;
8297;SDS011;4187;42.778;23.242;2024-02-15T11:45:19;7.40;;;6.28;;
8297;SDS011;4187;42.778;23.242;2024-02-15T11:47:47;7.68;;;6.85;;
8297;SDS011;4187;42.778;23.242;2024-02-15T11:50:17;7.07;;;6.38;;
8297;SDS011;4187;42.778;23.242;2024-02-15T11:52:45;6.72;;;5.63;;
8297;SDS011;4187;42.778;23.242;2024-02-15T11:55:14;8.27;;;6.60;;
8297;SDS011;4187;42.778;23.242;2024-02-15T11:57:53;6.70;;;5.32;;
8297;SDS011;4187;42.778;23.242;2024-02-15T12:00:27;6.70;;;5.57;;
8297;SDS011;4187;42.778;23.242;2024-02-15T12:03:13;7.68;;;6.57;;
8297;SDS011;4187;42.778;23.242;2024-02-15T12:06:00;13.13;;;10.88;;
8297;SDS011;4187;42.778;23.242;2024-02-15T12:08:45;7.38;;;6.18;;
8297;SDS011;4187;42.778;23.242;2024-02-15T12:11:29;8.63;;;7.07;;
8297;SDS011;4187;42.778;23.242;2024-02-15T12:14:14;6.65;;;5.38;;
8297;SDS011;4187;42.778;23.242;2024-02-15T12:17:00;5.85;;;5.30;;
8297;SDS011;4187;42.778;23.242;2024-02-15T12:19:47;6.45;;;5.13;;
8297;SDS011;4187;42.778;23.242;2024-02-15T12:22:17;6.90;;;5.10;;
8297;SDS011;4187;42.778;23.242;2024-02-15T12:24:52;6.70;;;5.30;;
8297;SDS011;4187;42.778;23.242;2024-02-15T12:27:20;9.25;;;5.85;;
8297;SDS011;4187;42.778;23.242;2024-02-15T12:29:52;6.53;;;5.60;;
8297;SDS011;4187;42.778;23.242;2024-02-15T12:32:20;6.32;;;5.72;;
8297;SDS011;4187;42.778;23.242;2024-02-15T12:34:48;7.43;;;5.97;;
8297;SDS011;4187;42.778;23.242;2024-02-15T12:37:15;6.20;;;5.40;;
8297;SDS011;4187;42.778;23.242;2024-02-15T12:39:47;6.32;;;5.32;;
8297;SDS011;4187;42.778;23.242;2024-02-15T12:42:14;6.35;;;5.78;;
8297;SDS011;4187;42.778;23.242;2024-02-15T12:44:45;7.50;;;6.32;;
8297;SDS011;4187;42.778;23.242;2024-02-15T12:47:20;6.90;;;4.93;;
8297;SDS011;4187;42.778;23.242;2024-02-15T12:49:50;7.10;;;5.25;;
8297;SDS011;4187;42.778;23.242;2024-02-15T12:52:34;6.40;;;5.75;;
8297;SDS011;4187;42.778;23.242;2024-02-15T12:55:06;5.95;;;5.35;;
8297;SDS011;4187;42.778;23.242;2024-02-15T12:57:34;7.15;;;5.78;;
8297;SDS011;4187;42.778;23.242;2024-02-15T13:00:02;6.65;;;6.03;;
8297;SDS011;4187;42.778;23.242;2024-02-15T13:02:36;7.70;;;6.35;;
8297;SDS011;4187;42.778;23.242;2024-02-15T13:05:03;6.70;;;4.82;;
8297;SDS011;4187;42.778;23.242;2024-02-15T13:07:30;6.20;;;4.70;;
8297;SDS011;4187;42.778;23.242;2024-02-15T13:09:58;11.10;;;5.50;;
8297;SDS011;4187;42.778;23.242;2024-02-15T13:12:25;7.10;;;4.85;;
8297;SDS011;4187;42.778;23.242;2024-02-15T13:14:53;8.75;;;6.53;;
8297;SDS011;4187;42.778;23.242;2024-02-15T13:17:20;5.50;;;4.80;;
8297;SDS011;4187;42.778;23.242;2024-02-15T13:19:47;6.65;;;5.68;;
8297;SDS011;4187;42.778;23.242;2024-02-15T13:22:15;8.63;;;6.05;;
8297;SDS011;4187;42.778;23.242;2024-02-15T13:24:43;6.47;;;5.80;;
8297;SDS011;4187;42.778;23.242;2024-02-15T13:27:12;6.10;;;5.50;;
8297;SDS011;4187;42.778;23.242;2024-02-15T13:29:39;6.88;;;5.90;;
8297;SDS011;4187;42.778;23.242;2024-02-15T13:32:06;6.70;;;5.13;;
8297;SDS011;4187;42.778;23.242;2024-02-15T13:34:37;6.03;;;5.43;;
8297;SDS011;4187;42.778;23.242;2024-02-15T13:37:05;8.23;;;5.60;;
8297;SDS011;4187;42.778;23.242;2024-02-15T13:39:32;5.97;;;4.80;;
8297;SDS011;4187;42.778;23.242;2024-02-15T13:41:59;7.57;;;5.85;;
8297;SDS011;4187;42.778;23.242;2024-02-15T13:44:28;7.03;;;4.95;;
8297;SDS011;4187;42.778;23.242;2024-02-15T13:46:56;7.47;;;6.78;;
8297;SDS011;4187;42.778;23.242;2024-02-15T13:49:23;8.57;;;6.43;;
8297;SDS011;4187;42.778;23.242;2024-02-15T13:51:50;8.50;;;6.03;;
8297;SDS011;4187;42.778;23.242;2024-02-15T13:54:17;5.57;;;5.07;;
8297;SDS011;4187;42.778;23.242;2024-02-15T13:56:44;7.47;;;5.38;;
8297;SDS011;4187;42.778;23.242;2024-02-15T13:59:11;7.70;;;5.50;;
8297;SDS011;4187;42.778;23.242;2024-02-15T14:01:39;5.53;;;4.75;;
8297;SDS011;4187;42.778;23.242;2024-02-15T14:04:11;5.60;;;5.03;;
8297;SDS011;4187;42.778;23.242;2024-02-15T14:06:38;6.68;;;5.97;;
8297;SDS011;4187;42.778;23.242;2024-02-15T14:09:06;6.00;;;5.32;;
8297;SDS011;4187;42.778;23.242;2024-02-15T14:11:33;8.82;;;7.15;;
8297;SDS011;4187;42.778;23.242;2024-02-15T14:13:59;10.10;;;6.93;;
8297;SDS011;4187;42.778;23.242;2024-02-15T14:16:26;9.32;;;7.28;;
8297;SDS011;4187;42.778;23.242;2024-02-15T14:18:55;11.02;;;6.68;;
8297;SDS011;4187;42.778;23.242;2024-02-15T14:21:22;6.43;;;5.72;;
8297;SDS011;4187;42.778;23.242;2024-02-15T14:23:50;8.10;;;5.63;;
8297;SDS011;4187;42.778;23.242;2024-02-15T14:26:17;11.73;;;9.63;;
8297;SDS011;4187;42.778;23.242;2024-02-15T14:28:47;8.88;;;5.13;;
8297;SDS011;4187;42.778;23.242;2024-02-15T14:31:17;5.45;;;4.95;;
8297;SDS011;4187;42.778;23.242;2024-02-15T14:34:17;5.70;;;4.57;;
8297;SDS011;4187;42.778;23.242;2024-02-15T14:36:45;6.07;;;4.32;;
8297;SDS011;4187;42.778;23.242;2024-02-15T14:39:12;5.32;;;4.75;;
8297;SDS011;4187;42.778;23.242;2024-02-15T14:41:40;7.97;;;3.97;;
8297;SDS011;4187;42.778;23.242;2024-02-15T14:44:08;5.45;;;4.75;;
8297;SDS011;4187;42.778;23.242;2024-02-15T14:46:37;6.45;;;5.50;;
8297;SDS011;4187;42.778;23.242;2024-02-15T14:49:05;5.57;;;5.03;;
8297;SDS011;4187;42.778;23.242;2024-02-15T14:51:34;8.35;;;5.53;;
8297;SDS011;4187;42.778;23.242;2024-02-15T14:54:04;9.65;;;6.75;;
8297;SDS011;4187;42.778;23.242;2024-02-15T14:56:31;7.80;;;6.15;;
8297;SDS011;4187;42.778;23.242;2024-02-15T14:58:58;8.27;;;6.38;;
8297;SDS011;4187;42.778;23.242;2024-02-15T15:01:26;7.40;;;5.10;;
8297;SDS011;4187;42.778;23.242;2024-02-15T15:03:54;7.28;;;5.53;;
8297;SDS011;4187;42.778;23.242;2024-02-15T15:06:23;6.60;;;4.63;;
8297;SDS011;4187;42.778;23.242;2024-02-15T15:09:09;12.73;;;6.47;;
8297;SDS011;4187;42.778;23.242;2024-02-15T15:11:54;6.95;;;4.45;;
8297;SDS011;4187;42.778;23.242;2024-02-15T15:14:41;6.43;;;4.20;;